sensor_id;sensor_type;location;lat;lon;timestamp;noise_LAeq;noise_LA_min;noise_LA_max;noise_LA01;noise_LA95
37279;Laerm;7458;49.002;8.472;2022-10-16T00:01:28;42.78;38.67;51.05;;
37279;Laerm;7458;49.002;8.472;2022-10-16T00:03:57;43.17;37.70;51.40;;
37279;Laerm;7458;49.002;8.472;2022-10-16T00:06:25;55.42;38.52;74.11;;
37279;Laerm;7458;49.002;8.472;2022-10-16T00:08:51;42.10;36.20;50.60;;
37279;Laerm;7458;49.002;8.472;2022-10-16T00:11:31;41.95;37.88;51.40;;
37279;Laerm;7458;49.002;8.472;2022-10-16T00:14:10;43.37;37.12;55.33;;
37279;Laerm;7458;49.002;8.472;2022-10-16T00:16:37;42.85;38.37;56.72;;
37279;Laerm;7458;49.002;8.472;2022-10-16T00:19:03;43.31;37.88;54.11;;
37279;Laerm;7458;49.002;8.472;2022-10-16T00:21:30;51.11;38.37;72.40;;
37279;Laerm;7458;49.002;8.472;2022-10-16T00:24:01;46.13;37.70;64.30;;
37279;Laerm;7458;49.002;8.472;2022-10-16T00:26:30;42.00;38.05;48.16;;
37279;Laerm;7458;49.002;8.472;2022-10-16T00:28:57;42.85;37.88;52.58;;
37279;Laerm;7458;49.002;8.472;2022-10-16T00:31:24;43.15;38.05;51.35;;
37279;Laerm;7458;49.002;8.472;2022-10-16T00:33:50;42.08;37.32;48.15;;
37279;Laerm;7458;49.002;8.472;2022-10-16T00:36:21;46.11;38.02;63.74;;
37279;Laerm;7458;49.002;8.472;2022-10-16T00:38:50;42.18;37.70;47.91;;
37279;Laerm;7458;49.002;8.472;2022-10-16T00:41:18;55.15;37.88;76.79;;
37279;Laerm;7458;49.002;8.472;2022-10-16T00:43:53;45.35;38.52;56.14;;
37279;Laerm;7458;49.002;8.472;2022-10-16T00:46:40;42.98;38.05;64.76;;
37279;Laerm;7458;49.002;8.472;2022-10-16T00:49:18;46.75;38.81;63.97;;
37279;Laerm;7458;49.002;8.472;2022-10-16T00:51:50;42.38;37.88;49.83;;
37279;Laerm;7458;49.002;8.472;2022-10-16T00:54:21;42.16;37.88;48.31;;
37279;Laerm;7458;49.002;8.472;2022-10-16T00:56:49;54.33;38.67;75.46;;
37279;Laerm;7458;49.002;8.472;2022-10-16T00:59:24;42.67;38.21;48.23;;
37279;Laerm;7458;49.002;8.472;2022-10-16T01:01:52;51.17;39.34;68.85;;
37279;Laerm;7458;49.002;8.472;2022-10-16T01:04:19;42.81;39.08;48.67;;
37279;Laerm;7458;49.002;8.472;2022-10-16T01:13:04;43.32;38.95;56.84;;
37279;Laerm;7458;49.002;8.472;2022-10-16T01:15:39;43.60;40.08;48.13;;
37279;Laerm;7458;49.002;8.472;2022-10-16T01:18:32;52.18;39.46;73.28;;
37279;Laerm;7458;49.002;8.472;2022-10-16T01:21:10;52.72;39.34;71.05;;
37279;Laerm;7458;49.002;8.472;2022-10-16T01:27:06;42.27;38.21;52.15;;
37279;Laerm;7458;49.002;8.472;2022-10-16T01:33:08;42.81;39.08;48.40;;
37279;Laerm;7458;49.002;8.472;2022-10-16T01:35:45;55.38;39.81;73.99;;
37279;Laerm;7458;49.002;8.472;2022-10-16T01:41:01;56.12;38.37;74.52;;
37279;Laerm;7458;49.002;8.472;2022-10-16T01:43:40;42.35;37.52;51.45;;
37279;Laerm;7458;49.002;8.472;2022-10-16T01:46:08;42.35;38.21;53.67;;
37279;Laerm;7458;49.002;8.472;2022-10-16T01:48:36;41.89;37.32;48.71;;
37279;Laerm;7458;49.002;8.472;2022-10-16T01:51:15;41.61;37.12;55.94;;
37279;Laerm;7458;49.002;8.472;2022-10-16T01:53:47;42.23;37.88;48.16;;
37279;Laerm;7458;49.002;8.472;2022-10-16T01:56:17;42.75;38.21;50.91;;
37279;Laerm;7458;49.002;8.472;2022-10-16T01:58:53;51.10;37.88;74.12;;
37279;Laerm;7458;49.002;8.472;2022-10-16T02:01:23;49.05;38.37;68.27;;
37279;Laerm;7458;49.002;8.472;2022-10-16T02:03:54;42.53;37.88;51.15;;
37279;Laerm;7458;49.002;8.472;2022-10-16T02:06:22;42.16;37.12;48.57;;
37279;Laerm;7458;49.002;8.472;2022-10-16T02:08:48;41.65;37.88;49.56;;
37279;Laerm;7458;49.002;8.472;2022-10-16T02:11:14;47.52;37.70;61.19;;
37279;Laerm;7458;49.002;8.472;2022-10-16T02:14:01;41.49;37.12;52.33;;
37279;Laerm;7458;49.002;8.472;2022-10-16T02:16:42;41.62;37.32;52.10;;
37279;Laerm;7458;49.002;8.472;2022-10-16T02:19:08;41.62;36.91;48.26;;
37279;Laerm;7458;49.002;8.472;2022-10-16T02:21:49;41.83;37.12;51.72;;
37279;Laerm;7458;49.002;8.472;2022-10-16T02:27:20;41.20;36.45;48.46;;
37279;Laerm;7458;49.002;8.472;2022-10-16T02:29:55;57.67;36.45;72.94;;
37279;Laerm;7458;49.002;8.472;2022-10-16T02:32:30;48.13;36.69;65.69;;
37279;Laerm;7458;49.002;8.472;2022-10-16T02:34:58;41.43;36.69;51.08;;
37279;Laerm;7458;49.002;8.472;2022-10-16T02:37:25;41.68;37.12;48.45;;
37279;Laerm;7458;49.002;8.472;2022-10-16T02:39:54;41.57;37.12;48.23;;
37279;Laerm;7458;49.002;8.472;2022-10-16T02:42:20;41.60;37.12;48.58;;
37279;Laerm;7458;49.002;8.472;2022-10-16T02:44:46;41.86;37.32;48.26;;
37279;Laerm;7458;49.002;8.472;2022-10-16T02:47:11;41.41;37.12;48.10;;
37279;Laerm;7458;49.002;8.472;2022-10-16T02:49:38;41.27;35.94;48.42;;
37279;Laerm;7458;49.002;8.472;2022-10-16T02:52:03;41.63;37.12;48.31;;
37279;Laerm;7458;49.002;8.472;2022-10-16T02:54:29;41.07;36.45;47.93;;
37279;Laerm;7458;49.002;8.472;2022-10-16T02:56:55;41.20;36.45;48.63;;
37279;Laerm;7458;49.002;8.472;2022-10-16T02:59:20;41.09;36.20;51.85;;
37279;Laerm;7458;49.002;8.472;2022-10-16T03:01:46;41.74;36.20;48.96;;
37279;Laerm;7458;49.002;8.472;2022-10-16T03:04:12;41.77;36.91;49.18;;
37279;Laerm;7458;49.002;8.472;2022-10-16T03:06:37;41.82;36.69;50.06;;
37279;Laerm;7458;49.002;8.472;2022-10-16T03:09:03;41.29;36.20;48.18;;
37279;Laerm;7458;49.002;8.472;2022-10-16T03:11:29;51.88;36.45;72.79;;
37279;Laerm;7458;49.002;8.472;2022-10-16T03:13:54;51.51;37.70;72.39;;
37279;Laerm;7458;49.002;8.472;2022-10-16T03:16:20;41.66;37.12;50.53;;
37279;Laerm;7458;49.002;8.472;2022-10-16T03:18:49;41.76;37.70;50.39;;
37279;Laerm;7458;49.002;8.472;2022-10-16T03:21:16;42.12;37.52;48.18;;
37279;Laerm;7458;49.002;8.472;2022-10-16T03:23:42;42.54;37.88;48.58;;
37279;Laerm;7458;49.002;8.472;2022-10-16T03:26:07;43.67;37.70;54.79;;
37279;Laerm;7458;49.002;8.472;2022-10-16T03:28:33;42.60;38.81;48.83;;
37279;Laerm;7458;49.002;8.472;2022-10-16T03:30:59;53.23;36.91;74.24;;
37279;Laerm;7458;49.002;8.472;2022-10-16T03:33:25;41.76;37.32;48.02;;
37279;Laerm;7458;49.002;8.472;2022-10-16T03:35:53;42.23;37.70;49.65;;
37279;Laerm;7458;49.002;8.472;2022-10-16T03:38:19;41.48;36.56;48.00;;
37279;Laerm;7458;49.002;8.472;2022-10-16T03:40:45;41.43;36.69;48.55;;
37279;Laerm;7458;49.002;8.472;2022-10-16T03:43:11;41.27;36.69;48.40;;
37279;Laerm;7458;49.002;8.472;2022-10-16T03:45:37;42.69;36.91;48.57;;
37279;Laerm;7458;49.002;8.472;2022-10-16T03:48:03;41.39;35.36;47.96;;
37279;Laerm;7458;49.002;8.472;2022-10-16T03:50:29;43.21;35.94;51.44;;
37279;Laerm;7458;49.002;8.472;2022-10-16T03:52:55;41.34;36.91;48.23;;
37279;Laerm;7458;49.002;8.472;2022-10-16T03:55:21;49.76;37.12;71.05;;
37279;Laerm;7458;49.002;8.472;2022-10-16T03:57:47;51.74;37.12;73.43;;
37279;Laerm;7458;49.002;8.472;2022-10-16T04:00:13;41.70;37.32;47.88;;
37279;Laerm;7458;49.002;8.472;2022-10-16T04:02:39;42.06;37.32;48.66;;
37279;Laerm;7458;49.002;8.472;2022-10-16T04:05:05;42.04;37.70;47.98;;
37279;Laerm;7458;49.002;8.472;2022-10-16T04:07:31;43.62;38.67;51.89;;
37279;Laerm;7458;49.002;8.472;2022-10-16T04:09:57;43.94;39.81;49.11;;
37279;Laerm;7458;49.002;8.472;2022-10-16T04:12:25;42.81;35.94;53.93;;
37279;Laerm;7458;49.002;8.472;2022-10-16T04:14:51;41.94;37.12;47.84;;
37279;Laerm;7458;49.002;8.472;2022-10-16T04:17:16;41.16;36.45;48.20;;
37279;Laerm;7458;49.002;8.472;2022-10-16T04:19:42;41.87;37.12;47.67;;
37279;Laerm;7458;49.002;8.472;2022-10-16T04:22:08;43.02;37.12;50.43;;
37279;Laerm;7458;49.002;8.472;2022-10-16T04:24:33;42.54;37.88;48.59;;
37279;Laerm;7458;49.002;8.472;2022-10-16T04:26:59;43.31;37.32;50.41;;
37279;Laerm;7458;49.002;8.472;2022-10-16T04:29:25;46.09;37.12;63.33;;
37279;Laerm;7458;49.002;8.472;2022-10-16T04:31:51;44.00;39.70;48.74;;
37279;Laerm;7458;49.002;8.472;2022-10-16T04:34:16;42.23;37.70;47.76;;
37279;Laerm;7458;49.002;8.472;2022-10-16T04:36:42;41.74;36.69;48.21;;
37279;Laerm;7458;49.002;8.472;2022-10-16T04:39:08;42.30;37.12;49.69;;
37279;Laerm;7458;49.002;8.472;2022-10-16T04:41:34;42.65;37.12;47.61;;
37279;Laerm;7458;49.002;8.472;2022-10-16T04:43:59;41.61;36.20;48.94;;
37279;Laerm;7458;49.002;8.472;2022-10-16T04:46:25;41.42;36.69;54.60;;
37279;Laerm;7458;49.002;8.472;2022-10-16T04:48:51;42.11;37.12;57.00;;
37279;Laerm;7458;49.002;8.472;2022-10-16T04:51:16;42.76;38.02;50.20;;
37279;Laerm;7458;49.002;8.472;2022-10-16T04:53:44;41.76;36.91;49.25;;
37279;Laerm;7458;49.002;8.472;2022-10-16T04:56:10;42.53;37.32;52.78;;
37279;Laerm;7458;49.002;8.472;2022-10-16T04:58:35;41.38;36.20;47.81;;
37279;Laerm;7458;49.002;8.472;2022-10-16T05:01:01;48.55;37.12;65.80;;
37279;Laerm;7458;49.002;8.472;2022-10-16T05:03:27;42.14;36.45;52.80;;
37279;Laerm;7458;49.002;8.472;2022-10-16T05:05:53;50.48;37.12;67.88;;
37279;Laerm;7458;49.002;8.472;2022-10-16T05:08:18;49.80;36.69;68.55;;
37279;Laerm;7458;49.002;8.472;2022-10-16T05:10:44;41.45;36.98;47.72;;
37279;Laerm;7458;49.002;8.472;2022-10-16T05:13:11;41.91;36.69;58.16;;
37279;Laerm;7458;49.002;8.472;2022-10-16T05:15:37;45.44;36.91;76.42;;
37279;Laerm;7458;49.002;8.472;2022-10-16T05:18:03;43.03;37.52;55.43;;
37279;Laerm;7458;49.002;8.472;2022-10-16T05:20:28;43.35;37.88;57.48;;
37279;Laerm;7458;49.002;8.472;2022-10-16T05:22:54;41.94;35.66;50.24;;
37279;Laerm;7458;49.002;8.472;2022-10-16T05:25:20;41.82;36.20;48.52;;
37279;Laerm;7458;49.002;8.472;2022-10-16T05:27:49;42.65;36.45;50.60;;
37279;Laerm;7458;49.002;8.472;2022-10-16T05:30:17;42.82;36.69;55.35;;
37279;Laerm;7458;49.002;8.472;2022-10-16T05:32:50;43.65;37.52;62.82;;
37279;Laerm;7458;49.002;8.472;2022-10-16T05:35:17;45.46;37.52;60.24;;
37279;Laerm;7458;49.002;8.472;2022-10-16T05:37:44;42.89;38.21;50.61;;
37279;Laerm;7458;49.002;8.472;2022-10-16T05:40:10;44.39;38.05;56.12;;
37279;Laerm;7458;49.002;8.472;2022-10-16T05:42:37;44.70;38.67;65.62;;
37279;Laerm;7458;49.002;8.472;2022-10-16T05:45:05;45.67;39.08;58.82;;
37279;Laerm;7458;49.002;8.472;2022-10-16T05:47:31;48.93;36.69;66.79;;
37279;Laerm;7458;49.002;8.472;2022-10-16T05:49:57;51.91;37.70;72.42;;
37279;Laerm;7458;49.002;8.472;2022-10-16T05:52:23;45.34;38.95;56.06;;
37279;Laerm;7458;49.002;8.472;2022-10-16T05:54:49;45.79;39.92;54.91;;
37279;Laerm;7458;49.002;8.472;2022-10-16T05:57:15;51.81;40.62;76.39;;
37279;Laerm;7458;49.002;8.472;2022-10-16T05:59:41;50.96;39.21;70.51;;
37279;Laerm;7458;49.002;8.472;2022-10-16T06:02:12;46.22;39.58;59.42;;
37279;Laerm;7458;49.002;8.472;2022-10-16T06:04:38;54.26;39.34;72.95;;
37279;Laerm;7458;49.002;8.472;2022-10-16T06:07:04;53.98;39.46;76.18;;
37279;Laerm;7458;49.002;8.472;2022-10-16T06:09:30;43.74;39.58;52.45;;
37279;Laerm;7458;49.002;8.472;2022-10-16T06:11:55;43.66;39.46;52.12;;
37279;Laerm;7458;49.002;8.472;2022-10-16T06:14:21;42.48;38.05;55.30;;
37279;Laerm;7458;49.002;8.472;2022-10-16T06:16:47;44.65;37.88;58.72;;
37279;Laerm;7458;49.002;8.472;2022-10-16T06:19:12;44.49;38.52;61.59;;
37279;Laerm;7458;49.002;8.472;2022-10-16T06:21:38;45.24;39.21;59.18;;
37279;Laerm;7458;49.002;8.472;2022-10-16T06:24:04;49.39;38.05;67.21;;
37279;Laerm;7458;49.002;8.472;2022-10-16T06:26:31;43.38;38.95;52.19;;
37279;Laerm;7458;49.002;8.472;2022-10-16T06:28:59;44.34;38.95;57.21;;
37279;Laerm;7458;49.002;8.472;2022-10-16T06:31:26;52.61;38.81;71.02;;
37279;Laerm;7458;49.002;8.472;2022-10-16T06:33:55;44.91;38.52;55.50;;
37279;Laerm;7458;49.002;8.472;2022-10-16T06:36:22;43.90;38.81;57.24;;
37279;Laerm;7458;49.002;8.472;2022-10-16T06:38:48;49.53;39.08;68.39;;
37279;Laerm;7458;49.002;8.472;2022-10-16T06:41:17;52.25;39.34;75.95;;
37279;Laerm;7458;49.002;8.472;2022-10-16T06:43:43;45.30;40.03;61.26;;
37279;Laerm;7458;49.002;8.472;2022-10-16T06:46:16;46.28;41.30;61.89;;
37279;Laerm;7458;49.002;8.472;2022-10-16T06:48:42;44.21;40.13;56.36;;
37279;Laerm;7458;49.002;8.472;2022-10-16T06:51:13;47.41;40.80;72.81;;
37279;Laerm;7458;49.002;8.472;2022-10-16T06:53:43;44.89;40.71;56.94;;
37279;Laerm;7458;49.002;8.472;2022-10-16T06:56:24;44.99;40.13;60.74;;
37279;Laerm;7458;49.002;8.472;2022-10-16T06:58:54;44.06;39.35;58.49;;
37279;Laerm;7458;49.002;8.472;2022-10-16T07:01:24;46.81;39.70;68.70;;
37279;Laerm;7458;49.002;8.472;2022-10-16T07:03:50;51.52;39.21;71.43;;
37279;Laerm;7458;49.002;8.472;2022-10-16T07:06:20;45.37;39.70;64.00;;
37279;Laerm;7458;49.002;8.472;2022-10-16T07:08:47;50.85;38.67;70.72;;
37279;Laerm;7458;49.002;8.472;2022-10-16T07:11:20;44.05;39.58;57.06;;
37279;Laerm;7458;49.002;8.472;2022-10-16T07:14:21;50.06;39.34;70.01;;
37279;Laerm;7458;49.002;8.472;2022-10-16T07:16:50;48.55;39.58;64.53;;
37279;Laerm;7458;49.002;8.472;2022-10-16T07:19:15;47.14;38.95;66.62;;
37279;Laerm;7458;49.002;8.472;2022-10-16T07:21:43;46.38;39.08;59.47;;
37279;Laerm;7458;49.002;8.472;2022-10-16T07:24:15;54.34;38.81;74.40;;
37279;Laerm;7458;49.002;8.472;2022-10-16T07:26:44;52.36;39.21;72.43;;
37279;Laerm;7458;49.002;8.472;2022-10-16T07:29:20;52.04;38.81;71.06;;
37279;Laerm;7458;49.002;8.472;2022-10-16T07:31:48;45.78;39.81;65.98;;
37279;Laerm;7458;49.002;8.472;2022-10-16T07:34:18;54.78;41.06;76.71;;
37279;Laerm;7458;49.002;8.472;2022-10-16T07:36:47;53.39;39.81;72.68;;
37279;Laerm;7458;49.002;8.472;2022-10-16T07:39:13;57.66;39.81;74.89;;
37279;Laerm;7458;49.002;8.472;2022-10-16T07:41:39;46.67;40.03;65.25;;
37279;Laerm;7458;49.002;8.472;2022-10-16T07:44:04;45.53;39.58;66.19;;
37279;Laerm;7458;49.002;8.472;2022-10-16T07:46:31;56.69;40.43;73.39;;
37279;Laerm;7458;49.002;8.472;2022-10-16T07:48:59;54.17;39.70;69.88;;
37279;Laerm;7458;49.002;8.472;2022-10-16T07:51:26;52.90;40.23;71.60;;
37279;Laerm;7458;49.002;8.472;2022-10-16T07:53:52;53.51;43.24;71.04;;
37279;Laerm;7458;49.002;8.472;2022-10-16T07:56:19;53.33;43.68;69.35;;
37279;Laerm;7458;49.002;8.472;2022-10-16T07:58:45;52.93;43.44;75.47;;
37279;Laerm;7458;49.002;8.472;2022-10-16T08:01:14;54.59;41.38;70.70;;
37279;Laerm;7458;49.002;8.472;2022-10-16T08:03:47;46.70;39.70;62.13;;
37279;Laerm;7458;49.002;8.472;2022-10-16T08:06:13;47.08;39.21;60.81;;
37279;Laerm;7458;49.002;8.472;2022-10-16T08:08:39;43.70;38.81;62.47;;
37279;Laerm;7458;49.002;8.472;2022-10-16T08:11:05;47.88;40.53;62.59;;
37279;Laerm;7458;49.002;8.472;2022-10-16T08:13:31;50.16;39.46;69.08;;
37279;Laerm;7458;49.002;8.472;2022-10-16T08:15:57;48.22;39.34;58.78;;
37279;Laerm;7458;49.002;8.472;2022-10-16T08:18:23;53.29;40.03;73.22;;
37279;Laerm;7458;49.002;8.472;2022-10-16T08:20:59;53.41;40.80;72.10;;
37279;Laerm;7458;49.002;8.472;2022-10-16T08:23:26;49.24;39.46;63.02;;
37279;Laerm;7458;49.002;8.472;2022-10-16T08:25:56;48.33;40.33;62.29;;
37279;Laerm;7458;49.002;8.472;2022-10-16T08:28:27;52.27;40.43;70.81;;
37279;Laerm;7458;49.002;8.472;2022-10-16T08:30:52;51.06;40.98;67.88;;
37279;Laerm;7458;49.002;8.472;2022-10-16T08:33:18;53.50;40.13;70.75;;
37279;Laerm;7458;49.002;8.472;2022-10-16T08:35:52;48.27;39.58;65.98;;
37279;Laerm;7458;49.002;8.472;2022-10-16T08:38:19;54.53;40.43;76.81;;
37279;Laerm;7458;49.002;8.472;2022-10-16T08:40:45;54.22;40.53;69.15;;
37279;Laerm;7458;49.002;8.472;2022-10-16T08:43:40;55.35;40.33;70.01;;
37279;Laerm;7458;49.002;8.472;2022-10-16T08:48:54;49.55;39.99;67.01;;
37279;Laerm;7458;49.002;8.472;2022-10-16T08:51:27;51.32;40.53;74.52;;
37279;Laerm;7458;49.002;8.472;2022-10-16T08:56:50;45.66;41.89;67.50;;
37279;Laerm;7458;49.002;8.472;2022-10-16T08:59:16;54.82;41.53;71.14;;
37279;Laerm;7458;49.002;8.472;2022-10-16T09:01:50;51.89;40.80;71.22;;
37279;Laerm;7458;49.002;8.472;2022-10-16T09:04:49;52.00;41.46;67.28;;
37279;Laerm;7458;49.002;8.472;2022-10-16T09:11:03;51.88;41.38;71.68;;
37279;Laerm;7458;49.002;8.472;2022-10-16T09:14:23;50.57;40.71;68.82;;
37279;Laerm;7458;49.002;8.472;2022-10-16T09:22:31;47.90;41.46;70.75;;
37279;Laerm;7458;49.002;8.472;2022-10-16T09:25:10;51.75;42.22;68.52;;
37279;Laerm;7458;49.002;8.472;2022-10-16T09:27:37;59.34;41.22;82.89;;
37279;Laerm;7458;49.002;8.472;2022-10-16T09:30:18;55.92;40.53;72.02;;
37279;Laerm;7458;49.002;8.472;2022-10-16T09:32:48;46.29;40.80;61.47;;
37279;Laerm;7458;49.002;8.472;2022-10-16T09:35:22;46.00;41.30;55.74;;
37279;Laerm;7458;49.002;8.472;2022-10-16T09:37:54;46.34;41.38;57.33;;
37279;Laerm;7458;49.002;8.472;2022-10-16T09:40:30;49.04;40.62;64.74;;
37279;Laerm;7458;49.002;8.472;2022-10-16T09:43:21;49.81;40.71;69.42;;
37279;Laerm;7458;49.002;8.472;2022-10-16T09:46:02;50.67;40.33;66.42;;
37279;Laerm;7458;49.002;8.472;2022-10-16T09:48:58;50.46;39.81;63.35;;
37279;Laerm;7458;49.002;8.472;2022-10-16T09:51:30;51.15;40.62;66.61;;
37279;Laerm;7458;49.002;8.472;2022-10-16T09:54:01;50.01;39.92;66.23;;
37279;Laerm;7458;49.002;8.472;2022-10-16T09:56:34;47.53;39.46;63.90;;
37279;Laerm;7458;49.002;8.472;2022-10-16T09:59:19;52.34;40.33;72.41;;
37279;Laerm;7458;49.002;8.472;2022-10-16T10:01:50;50.05;40.53;68.94;;
37279;Laerm;7458;49.002;8.472;2022-10-16T10:04:19;48.04;40.33;69.35;;
37279;Laerm;7458;49.002;8.472;2022-10-16T10:06:56;52.78;39.08;76.32;;
37279;Laerm;7458;49.002;8.472;2022-10-16T10:09:36;51.29;38.81;76.24;;
37279;Laerm;7458;49.002;8.472;2022-10-16T10:12:20;53.30;40.33;72.81;;
37279;Laerm;7458;49.002;8.472;2022-10-16T10:14:57;46.00;40.43;65.31;;
37279;Laerm;7458;49.002;8.472;2022-10-16T10:17:28;47.73;38.67;69.66;;
37279;Laerm;7458;49.002;8.472;2022-10-16T10:20:00;50.96;38.52;69.10;;
37279;Laerm;7458;49.002;8.472;2022-10-16T10:22:44;52.74;40.43;70.70;;
37279;Laerm;7458;49.002;8.472;2022-10-16T10:33:46;53.62;38.21;72.00;;
37279;Laerm;7458;49.002;8.472;2022-10-16T10:39:19;49.31;40.43;67.10;;
37279;Laerm;7458;49.002;8.472;2022-10-16T10:42:21;53.36;40.23;74.94;;
37279;Laerm;7458;49.002;8.472;2022-10-16T10:45:26;49.81;38.95;67.27;;
37279;Laerm;7458;49.002;8.472;2022-10-16T10:51:01;55.04;38.95;75.96;;
37279;Laerm;7458;49.002;8.472;2022-10-16T11:08:27;53.06;39.81;69.17;;
37279;Laerm;7458;49.002;8.472;2022-10-16T11:11:14;49.20;39.70;66.48;;
37279;Laerm;7458;49.002;8.472;2022-10-16T11:14:01;56.23;38.32;69.92;;
37279;Laerm;7458;49.002;8.472;2022-10-16T11:16:34;51.97;40.13;67.20;;
37279;Laerm;7458;49.002;8.472;2022-10-16T11:19:29;52.77;39.58;72.67;;
37279;Laerm;7458;49.002;8.472;2022-10-16T11:22:20;53.02;39.70;70.64;;
37279;Laerm;7458;49.002;8.472;2022-10-16T11:28:23;52.83;38.37;73.79;;
37279;Laerm;7458;49.002;8.472;2022-10-16T11:31:07;54.24;38.52;71.10;;
37279;Laerm;7458;49.002;8.472;2022-10-16T11:33:43;54.48;39.08;71.66;;
37279;Laerm;7458;49.002;8.472;2022-10-16T11:36:47;50.25;38.74;69.67;;
37279;Laerm;7458;49.002;8.472;2022-10-16T11:39:29;44.30;37.52;59.65;;
37279;Laerm;7458;49.002;8.472;2022-10-16T11:42:32;49.09;38.81;65.42;;
37279;Laerm;7458;49.002;8.472;2022-10-16T11:45:32;52.02;39.46;69.88;;
37279;Laerm;7458;49.002;8.472;2022-10-16T11:48:33;52.77;37.88;66.01;;
37279;Laerm;7458;49.002;8.472;2022-10-16T11:51:35;55.34;38.37;76.68;;
37279;Laerm;7458;49.002;8.472;2022-10-16T11:57:01;47.53;37.88;65.58;;
37279;Laerm;7458;49.002;8.472;2022-10-16T11:59:44;44.15;37.35;66.98;;
37279;Laerm;7458;49.002;8.472;2022-10-16T12:05:35;53.89;38.21;72.44;;
37279;Laerm;7458;49.002;8.472;2022-10-16T12:08:15;52.49;38.37;73.19;;
37279;Laerm;7458;49.002;8.472;2022-10-16T12:10:46;56.63;40.23;73.54;;
37279;Laerm;7458;49.002;8.472;2022-10-16T12:13:39;50.39;37.87;67.05;;
37279;Laerm;7458;49.002;8.472;2022-10-16T12:18:43;58.05;38.67;74.71;;
37279;Laerm;7458;49.002;8.472;2022-10-16T12:21:11;57.22;38.52;73.55;;
37279;Laerm;7458;49.002;8.472;2022-10-16T12:24:02;52.59;39.08;68.08;;
37279;Laerm;7458;49.002;8.472;2022-10-16T12:26:38;48.16;40.13;63.32;;
37279;Laerm;7458;49.002;8.472;2022-10-16T12:31:55;56.49;39.81;75.23;;
37279;Laerm;7458;49.002;8.472;2022-10-16T12:34:41;49.89;39.58;70.18;;
37279;Laerm;7458;49.002;8.472;2022-10-16T12:37:26;54.57;39.92;72.82;;
37279;Laerm;7458;49.002;8.472;2022-10-16T12:39:55;58.49;39.92;77.18;;
37279;Laerm;7458;49.002;8.472;2022-10-16T12:44:54;52.81;39.81;69.97;;
37279;Laerm;7458;49.002;8.472;2022-10-16T12:47:37;49.91;37.70;66.24;;
37279;Laerm;7458;49.002;8.472;2022-10-16T12:50:24;55.57;39.08;72.20;;
37279;Laerm;7458;49.002;8.472;2022-10-16T12:52:50;48.54;38.60;63.82;;
37279;Laerm;7458;49.002;8.472;2022-10-16T12:55:19;54.74;39.46;73.26;;
37279;Laerm;7458;49.002;8.472;2022-10-16T12:58:24;48.10;38.95;67.16;;
37279;Laerm;7458;49.002;8.472;2022-10-16T13:02:11;48.18;38.21;63.83;;
37279;Laerm;7458;49.002;8.472;2022-10-16T13:08:16;52.17;38.37;68.66;;
37279;Laerm;7458;49.002;8.472;2022-10-16T13:15:00;52.75;39.92;71.81;;
37279;Laerm;7458;49.002;8.472;2022-10-16T13:17:10;56.28;38.87;74.02;;
37279;Laerm;7458;49.002;8.472;2022-10-16T13:20:00;48.77;38.95;65.49;;
37279;Laerm;7458;49.002;8.472;2022-10-16T13:22:43;57.81;38.32;74.05;;
37279;Laerm;7458;49.002;8.472;2022-10-16T13:25:26;44.61;38.05;55.65;;
37279;Laerm;7458;49.002;8.472;2022-10-16T13:28:00;51.88;38.21;67.77;;
37279;Laerm;7458;49.002;8.472;2022-10-16T13:30:29;53.54;39.81;69.18;;
37279;Laerm;7458;49.002;8.472;2022-10-16T13:33:07;57.27;39.99;74.67;;
37279;Laerm;7458;49.002;8.472;2022-10-16T13:35:35;50.31;39.46;63.47;;
37279;Laerm;7458;49.002;8.472;2022-10-16T13:40:34;50.93;39.92;66.89;;
37279;Laerm;7458;49.002;8.472;2022-10-16T13:43:00;45.74;39.08;62.02;;
37279;Laerm;7458;49.002;8.472;2022-10-16T13:45:26;48.63;39.34;66.94;;
37279;Laerm;7458;49.002;8.472;2022-10-16T13:48:08;53.69;38.81;70.92;;
37279;Laerm;7458;49.002;8.472;2022-10-16T13:50:35;49.93;41.53;61.39;;
37279;Laerm;7458;49.002;8.472;2022-10-16T13:53:13;53.63;40.33;75.72;;
37279;Laerm;7458;49.002;8.472;2022-10-16T13:55:40;58.96;40.13;80.58;;
37279;Laerm;7458;49.002;8.472;2022-10-16T13:58:13;46.48;38.37;67.13;;
37279;Laerm;7458;49.002;8.472;2022-10-16T14:00:55;52.18;39.34;71.81;;
37279;Laerm;7458;49.002;8.472;2022-10-16T14:03:22;50.94;38.21;65.82;;
37279;Laerm;7458;49.002;8.472;2022-10-16T14:05:59;48.87;38.21;67.48;;
37279;Laerm;7458;49.002;8.472;2022-10-16T14:08:28;48.89;38.81;67.48;;
37279;Laerm;7458;49.002;8.472;2022-10-16T14:10:58;53.55;38.05;71.66;;
37279;Laerm;7458;49.002;8.472;2022-10-16T14:13:39;46.97;38.52;63.86;;
37279;Laerm;7458;49.002;8.472;2022-10-16T14:16:16;46.57;37.88;68.35;;
37279;Laerm;7458;49.002;8.472;2022-10-16T14:19:34;51.35;37.32;67.21;;
37279;Laerm;7458;49.002;8.472;2022-10-16T14:21:37;53.25;39.70;76.69;;
37279;Laerm;7458;49.002;8.472;2022-10-16T14:24:39;48.62;38.52;69.21;;
37279;Laerm;7458;49.002;8.472;2022-10-16T14:27:33;53.18;38.81;71.06;;
37279;Laerm;7458;49.002;8.472;2022-10-16T14:30:20;50.97;39.81;67.16;;
37279;Laerm;7458;49.002;8.472;2022-10-16T14:33:00;51.76;38.21;70.42;;
37279;Laerm;7458;49.002;8.472;2022-10-16T14:35:36;47.46;39.92;69.32;;
37279;Laerm;7458;49.002;8.472;2022-10-16T14:38:05;56.08;41.46;73.41;;
37279;Laerm;7458;49.002;8.472;2022-10-16T14:40:35;53.88;39.34;70.32;;
37279;Laerm;7458;49.002;8.472;2022-10-16T14:43:04;53.94;37.70;70.89;;
37279;Laerm;7458;49.002;8.472;2022-10-16T14:45:34;50.23;39.58;65.54;;
37279;Laerm;7458;49.002;8.472;2022-10-16T14:48:06;52.05;39.99;69.95;;
37279;Laerm;7458;49.002;8.472;2022-10-16T14:50:40;44.48;35.94;57.10;;
37279;Laerm;7458;49.002;8.472;2022-10-16T14:53:12;51.94;38.67;68.06;;
37279;Laerm;7458;49.002;8.472;2022-10-16T14:55:39;50.36;39.46;66.16;;
37279;Laerm;7458;49.002;8.472;2022-10-16T14:58:16;55.51;38.60;79.04;;
37279;Laerm;7458;49.002;8.472;2022-10-16T15:00:43;48.06;37.70;65.12;;
37279;Laerm;7458;49.002;8.472;2022-10-16T15:03:09;53.02;37.70;68.24;;
37279;Laerm;7458;49.002;8.472;2022-10-16T15:05:35;52.15;39.34;71.99;;
37279;Laerm;7458;49.002;8.472;2022-10-16T15:08:00;53.91;41.22;69.73;;
37279;Laerm;7458;49.002;8.472;2022-10-16T15:10:28;55.46;41.22;70.32;;
37279;Laerm;7458;49.002;8.472;2022-10-16T15:12:55;52.47;37.52;70.46;;
37279;Laerm;7458;49.002;8.472;2022-10-16T15:17:57;47.45;37.88;60.86;;
37279;Laerm;7458;49.002;8.472;2022-10-16T15:20:25;50.81;40.13;76.14;;
37279;Laerm;7458;49.002;8.472;2022-10-16T15:22:51;50.90;39.46;70.57;;
37279;Laerm;7458;49.002;8.472;2022-10-16T15:25:38;51.23;39.92;69.30;;
37279;Laerm;7458;49.002;8.472;2022-10-16T15:28:08;53.12;38.21;71.32;;
37279;Laerm;7458;49.002;8.472;2022-10-16T15:30:36;49.77;38.81;64.38;;
37279;Laerm;7458;49.002;8.472;2022-10-16T15:33:03;49.47;40.80;65.27;;
37279;Laerm;7458;49.002;8.472;2022-10-16T15:35:29;48.73;38.95;65.19;;
37279;Laerm;7458;49.002;8.472;2022-10-16T15:37:57;46.32;39.34;62.09;;
37279;Laerm;7458;49.002;8.472;2022-10-16T15:40:23;56.87;40.33;73.08;;
37279;Laerm;7458;49.002;8.472;2022-10-16T15:42:49;47.59;38.52;61.45;;
37279;Laerm;7458;49.002;8.472;2022-10-16T15:45:16;53.81;40.53;70.10;;
37279;Laerm;7458;49.002;8.472;2022-10-16T15:47:42;50.60;38.95;65.46;;
37279;Laerm;7458;49.002;8.472;2022-10-16T15:50:12;51.44;38.52;73.22;;
37279;Laerm;7458;49.002;8.472;2022-10-16T15:52:38;47.62;39.34;61.19;;
37279;Laerm;7458;49.002;8.472;2022-10-16T15:55:09;48.35;38.81;61.85;;
37279;Laerm;7458;49.002;8.472;2022-10-16T15:57:37;46.99;39.81;62.70;;